Time;durP1;ratioP1;P1;durP2;ratioP2;P2;SDS_P1;SDS_P2;PMS_P1;PMS_P2;Temp;Humidity;BMP_temperature;BMP_pressure;BME280_temperature;BME280_humidity;BME280_pressure;Samples;Min_cycle;Max_cycle;Signal;HPM_P1;HPM_P2
2023/06/26 00:01:07;;;;;;;;;;;;;;;;;;;;;
2023/06/26 00:03:53;;;;;;;;;1.50;1.00;;;;;;;;5057943;28;69088;-93
2023/06/26 00:06:27;;;;;;;;;2.50;0.75;;;;;;;;5058201;28;46450;-92
2023/06/26 00:08:58;;;;;;;;;0.50;0.50;;;;;;;;5058579;28;45765;-94
2023/06/26 00:11:27;;;;;;;;;2.50;2.00;;;;;;;;5058809;28;45451;-92
2023/06/26 00:14:01;;;;;;;;;2.00;1.25;;;;;;;;5058582;28;45424;-91
2023/06/26 00:16:31;;;;;;;;;2.50;1.00;;;;;;;;5058791;28;45611;-91
2023/06/26 00:19:00;;;;;;;;;3.50;0.75;;;;;;;;5058849;28;45408;-91
2023/06/26 00:21:37;;;;;;;;;;;;;;;;;;;;;
2023/06/26 00:24:11;;;;;;;;;1.00;1.00;;;;;;;;5054987;28;70977;-92
2023/06/26 00:27:05;;;;;;;;;1.25;1.00;;;;;;;;5058167;28;46307;-91
2023/06/26 00:29:55;;;;;;;;;;;;;;;;;;;;;
2023/06/26 00:32:35;;;;;;;;;1.75;1.50;;;;;;;;5055040;28;69634;-92
2023/06/26 00:35:28;;;;;;;;;;;;;;;;;;;;;
2023/06/26 00:37:59;;;;;;;;;1.00;1.00;;;;;;;;5055874;28;45462;-91
2023/06/26 00:40:29;;;;;;;;;3.50;1.75;;;;;;;;5057492;28;45738;-94
2023/06/26 00:43:10;;;;;;;;;;;;;;;;;;;;;
2023/06/26 00:45:37;;;;;;;;;0.25;0.00;;;;;;;;5038323;28;70286;-92
2023/06/26 00:48:33;;;;;;;;;;;;;;;;;;;;;
2023/06/26 00:51:09;;;;;;;;;3.50;1.25;;;;;;;;5028918;28;74078;-93
2023/06/26 00:54:00;;;;;;;;;;;;;;;;;;;;;
2023/06/26 00:59:37;;;;;;;;;0.75;0.75;;;;;;;;5081194;27;45668;-92
2023/06/26 01:02:29;;;;;;;;;;;;;;;;;;;;;
2023/06/26 01:05:11;;;;;;;;;;;;;;;;;;;;;
2023/06/26 01:07:37;;;;;;;;;0.75;0.75;;;;;;;;5093743;27;70567;-91
2023/06/26 01:10:08;;;;;;;;;2.00;0.75;;;;;;;;5097994;27;45473;-91
2023/06/26 01:12:33;;;;;;;;;1.25;0.25;;;;;;;;5079694;27;45826;-92
2023/06/26 01:15:19;;;;;;;;;3.50;0.50;;;;;;;;5061737;28;45369;-90
2023/06/26 01:17:47;;;;;;;;;1.00;0.50;;;;;;;;5057384;28;45640;-92
2023/06/26 01:20:30;;;;;;;;;1.25;1.25;;;;;;;;5060374;27;46576;-93
2023/06/26 01:23:23;;;;;;;;;2.50;1.00;;;;;;;;5098061;27;45269;-91
2023/06/26 01:26:35;;;;;;;;;1.25;1.25;;;;;;;;5035396;28;45379;-95
2023/06/26 01:29:23;;;;;;;;;;;;;;;;;;;;;
2023/06/26 01:35:18;;;;;;;;;;;;;;;;;;;;;
2023/06/26 01:37:47;;;;;;;;;0.00;0.00;;;;;;;;5014453;28;67985;-90
2023/06/26 01:40:19;;;;;;;;;2.25;0.50;;;;;;;;4998636;28;45823;-92
2023/06/26 01:43:16;;;;;;;;;1.50;0.50;;;;;;;;5014301;28;47699;-91
2023/06/26 01:46:12;;;;;;;;;;;;;;;;;;;;;
2023/06/26 01:49:07;;;;;;;;;;;;;;;;;;;;;
2023/06/26 01:54:23;;;;;;;;;0.00;0.00;;;;;;;;4975320;28;46311;-93
2023/06/26 01:57:18;;;;;;;;;1.00;1.00;;;;;;;;4968531;28;45434;-92
2023/06/26 02:00:03;;;;;;;;;;;;;;;;;;;;;
2023/06/26 02:06:07;;;;;;;;;2.00;0.25;;;;;;;;4894631;29;46229;-91
2023/06/26 02:08:49;;;;;;;;;1.25;0.00;;;;;;;;4915271;28;45324;-91
2023/06/26 02:11:36;;;;;;;;;1.50;1.50;;;;;;;;4917481;28;45255;-91
2023/06/26 02:14:14;;;;;;;;;1.25;0.50;;;;;;;;4917100;28;45470;-91
2023/06/26 02:16:39;;;;;;;;;1.00;1.00;;;;;;;;4916706;28;45563;-90
2023/06/26 02:19:21;;;;;;;;;2.00;1.00;;;;;;;;4916360;28;45724;-90
2023/06/26 02:22:16;;;;;;;;;;;;;;;;;;;;;
2023/06/26 02:27:58;;;;;;;;;0.00;0.00;;;;;;;;4897765;29;47446;-90
2023/06/26 02:30:33;;;;;;;;;;;;;;;;;;;;;
2023/06/26 02:33:11;;;;;;;;;;;;;;;;;;;;;
2023/06/26 02:35:38;;;;;;;;;1.50;1.00;;;;;;;;4955015;28;70095;-91
2023/06/26 02:38:06;;;;;;;;;0.50;0.50;;;;;;;;4955201;28;48258;-91
2023/06/26 02:40:36;;;;;;;;;2.50;0.00;;;;;;;;4955547;28;45735;-91
2023/06/26 02:43:08;;;;;;;;;1.00;0.25;;;;;;;;5059398;27;45731;-90
2023/06/26 02:45:36;;;;;;;;;2.25;1.00;;;;;;;;5076021;28;45445;-90
2023/06/26 02:48:04;;;;;;;;;1.75;1.00;;;;;;;;5057614;28;47333;-89
2023/06/26 02:50:38;;;;;;;;;0.00;0.00;;;;;;;;5075940;28;45660;-91
2023/06/26 02:53:10;;;;;;;;;1.50;0.00;;;;;;;;5078996;27;45272;-90
2023/06/26 02:55:56;;;;;;;;;2.00;0.00;;;;;;;;5062949;27;45428;-90
2023/06/26 02:58:28;;;;;;;;;2.50;0.00;;;;;;;;5076113;28;45426;-89
2023/06/26 03:00:59;;;;;;;;;0.00;0.00;;;;;;;;5058053;28;45796;-90
2023/06/26 03:03:26;;;;;;;;;0.75;0.00;;;;;;;;5075431;28;45216;-91
2023/06/26 03:05:54;;;;;;;;;1.25;0.00;;;;;;;;5079678;28;45433;-89
2023/06/26 03:08:38;;;;;;;;;;;;;;;;;;;;;
2023/06/26 03:11:12;;;;;;;;;0.25;0.25;;;;;;;;5058292;28;73046;-91
2023/06/26 03:13:38;;;;;;;;;1.00;0.00;;;;;;;;5066255;28;45386;-90
2023/06/26 03:16:05;;;;;;;;;0.50;0.00;;;;;;;;5079241;28;45408;-89
2023/06/26 03:18:45;;;;;;;;;2.00;0.00;;;;;;;;5074453;28;45587;-91
2023/06/26 03:21:43;;;;;;;;;;;;;;;;;;;;;
2023/06/26 03:24:26;;;;;;;;;;;;;;;;;;;;;
2023/06/26 03:27:20;;;;;;;;;0.00;0.00;;;;;;;;5075484;28;71460;-90
2023/06/26 03:32:54;;;;;;;;;0.00;0.00;;;;;;;;5043441;28;45542;-91
2023/06/26 03:38:25;;;;;;;;;0.00;0.00;;;;;;;;5044688;28;45703;-90
2023/06/26 03:40:53;;;;;;;;;0.00;0.00;;;;;;;;5058494;28;45330;-90
2023/06/26 03:43:30;;;;;;;;;0.00;0.00;;;;;;;;5058846;28;45589;-90
2023/06/26 03:45:55;;;;;;;;;3.25;1.00;;;;;;;;5057557;28;45221;-90
2023/06/26 03:48:29;;;;;;;;;1.00;1.00;;;;;;;;5073763;28;45512;-90
2023/06/26 03:50:54;;;;;;;;;0.00;0.00;;;;;;;;5077916;28;45341;-88
2023/06/26 03:53:29;;;;;;;;;2.00;1.00;;;;;;;;5078623;28;45264;-89
2023/06/26 03:55:57;;;;;;;;;0.25;0.25;;;;;;;;5070073;27;45320;-89
2023/06/26 03:58:22;;;;;;;;;3.00;1.00;;;;;;;;5099024;27;45465;-90
2023/06/26 04:00:47;;;;;;;;;3.50;1.00;;;;;;;;5079124;27;47181;-89
2023/06/26 04:03:25;;;;;;;;;1.00;1.00;;;;;;;;5076706;28;45581;-89
2023/06/26 04:05:53;;;;;;;;;3.00;2.00;;;;;;;;5078529;28;45328;-90
2023/06/26 04:08:28;;;;;;;;;1.25;0.25;;;;;;;;5078467;27;45361;-90
2023/06/26 04:11:04;;;;;;;;;;;;;;;;;;;;;
2023/06/26 04:13:31;;;;;;;;;2.00;1.00;;;;;;;;5076175;28;72737;-89
2023/06/26 04:15:59;;;;;;;;;2.50;1.50;;;;;;;;5078002;27;45407;-89
2023/06/26 04:18:26;;;;;;;;;5.25;2.00;;;;;;;;5078048;27;45356;-89
2023/06/26 04:21:11;;;;;;;;;2.50;1.00;;;;;;;;5078128;28;45537;-89
2023/06/26 04:23:39;;;;;;;;;1.00;0.00;;;;;;;;5077956;27;45621;-89
2023/06/26 04:26:13;;;;;;;;;1.75;0.50;;;;;;;;5078406;28;45213;-89
2023/06/26 04:28:41;;;;;;;;;2.75;1.00;;;;;;;;5096974;27;45276;-88
2023/06/26 04:31:26;;;;;;;;;0.50;0.50;;;;;;;;5078621;27;47917;-88
2023/06/26 04:33:55;;;;;;;;;2.00;0.50;;;;;;;;5098456;27;45596;-89
2023/06/26 04:36:33;;;;;;;;;1.00;1.00;;;;;;;;5060140;28;45770;-88
2023/06/26 04:39:11;;;;;;;;;1.50;0.50;;;;;;;;5090536;27;45220;-90
2023/06/26 04:41:44;;;;;;;;;3.00;0.50;;;;;;;;5098436;27;46613;-88
2023/06/26 04:44:27;;;;;;;;;0.00;0.00;;;;;;;;5097237;27;46595;-89
2023/06/26 04:46:57;;;;;;;;;2.00;0.25;;;;;;;;5098623;27;45666;-89
2023/06/26 04:49:32;;;;;;;;;2.75;1.00;;;;;;;;5082724;27;45452;-90
2023/06/26 04:52:02;;;;;;;;;3.00;1.00;;;;;;;;5059597;28;48156;-89
2023/06/26 04:54:28;;;;;;;;;2.00;1.00;;;;;;;;5094299;27;45622;-89
2023/06/26 04:57:03;;;;;;;;;;;;;;;;;;;;;
2023/06/26 04:59:29;;;;;;;;;1.25;1.00;;;;;;;;5075068;28;71097;-89
2023/06/26 05:01:59;;;;;;;;;0.00;0.00;;;;;;;;5077274;27;45452;-89
2023/06/26 05:04:26;;;;;;;;;1.00;0.00;;;;;;;;5059233;28;45986;-89
2023/06/26 05:06:59;;;;;;;;;0.00;0.00;;;;;;;;5077545;27;45473;-89
2023/06/26 05:09:33;;;;;;;;;1.00;1.00;;;;;;;;5077355;28;45330;-89
2023/06/26 05:12:05;;;;;;;;;1.50;0.75;;;;;;;;5077166;28;47210;-89
2023/06/26 05:14:30;;;;;;;;;2.00;0.75;;;;;;;;5076990;28;45292;-89
2023/06/26 05:16:58;;;;;;;;;1.00;1.00;;;;;;;;5067351;27;45427;-89
2023/06/26 05:19:23;;;;;;;;;2.25;1.25;;;;;;;;5098034;27;45439;-88
2023/06/26 05:21:57;;;;;;;;;4.50;1.00;;;;;;;;5071969;28;47158;-89
2023/06/26 05:24:22;;;;;;;;;1.50;0.00;;;;;;;;5077259;28;45375;-89
2023/06/26 05:26:48;;;;;;;;;3.25;1.25;;;;;;;;5095829;27;45619;-87
2023/06/26 05:29:55;;;;;;;;;2.50;1.00;;;;;;;;5097471;27;45446;-89
2023/06/26 05:32:17;;;;;;;;;2.00;0.75;;;;;;;;5095483;27;46960;-89
2023/06/26 05:34:55;;;;;;;;;5.25;0.00;;;;;;;;5079861;27;45434;-89
2023/06/26 05:37:30;;;;;;;;;1.00;0.25;;;;;;;;5078710;27;45422;-90
2023/06/26 05:40:08;;;;;;;;;;;;;;;;;;;;;
2023/06/26 05:42:34;;;;;;;;;1.00;0.25;;;;;;;;5091351;27;76318;-89
2023/06/26 05:47:47;;;;;;;;;3.75;2.00;;;;;;;;5059414;27;45485;-87
2023/06/26 05:50:13;;;;;;;;;3.50;1.50;;;;;;;;5083158;27;45364;-84
2023/06/26 05:52:38;;;;;;;;;4.00;1.00;;;;;;;;5074875;27;45542;-83
2023/06/26 05:55:04;;;;;;;;;1.75;1.75;;;;;;;;5085661;27;45329;-85
2023/06/26 05:57:30;;;;;;;;;2.50;1.75;;;;;;;;5074774;28;45537;-87
2023/06/26 05:59:56;;;;;;;;;2.50;1.00;;;;;;;;5075880;27;45337;-85
2023/06/26 06:02:21;;;;;;;;;5.75;2.00;;;;;;;;5080298;27;45363;-84
2023/06/26 06:04:46;;;;;;;;;2.67;1.00;;;;;;;;5113681;27;45478;-85
2023/06/26 06:07:12;;;;;;;;;1.67;1.00;;;;;;;;5075584;27;45537;-86
2023/06/26 06:09:37;;;;;;;;;3.00;1.00;;;;;;;;5075035;28;45415;-85
2023/06/26 06:12:04;;;;;;;;;2.25;1.00;;;;;;;;5074885;27;45442;-85
2023/06/26 06:14:29;;;;;;;;;3.00;2.00;;;;;;;;5076651;27;45288;-86
2023/06/26 06:16:55;;;;;;;;;3.33;1.00;;;;;;;;5075997;27;45281;-84
2023/06/26 06:19:20;;;;;;;;;1.25;1.25;;;;;;;;5075076;27;45379;-86
2023/06/26 06:21:45;;;;;;;;;2.00;1.00;;;;;;;;5084689;27;46329;-84
2023/06/26 06:24:10;;;;;;;;;3.33;1.33;;;;;;;;5094142;27;45375;-85
2023/06/26 06:26:36;;;;;;;;;2.00;2.00;;;;;;;;5075195;27;45347;-85
2023/06/26 06:29:01;;;;;;;;;3.33;1.00;;;;;;;;5075242;28;45458;-84
2023/06/26 06:31:28;;;;;;;;;4.00;2.00;;;;;;;;5075525;27;46890;-84
2023/06/26 06:33:53;;;;;;;;;3.75;2.00;;;;;;;;5074986;27;45540;-83
2023/06/26 06:36:18;;;;;;;;;1.75;1.75;;;;;;;;5075476;28;45394;-84
2023/06/26 06:38:43;;;;;;;;;1.00;1.00;;;;;;;;5075692;28;45438;-85
2023/06/26 06:41:09;;;;;;;;;3.50;1.50;;;;;;;;5078412;27;46312;-87
2023/06/26 06:43:34;;;;;;;;;3.00;1.00;;;;;;;;5079100;28;45299;-87
2023/06/26 06:45:59;;;;;;;;;2.67;2.00;;;;;;;;5077802;28;45312;-87
2023/06/26 06:48:24;;;;;;;;;2.00;1.00;;;;;;;;5078629;27;45445;-87
2023/06/26 06:50:49;;;;;;;;;0.67;0.67;;;;;;;;5077994;28;46295;-87
2023/06/26 06:53:15;;;;;;;;;1.67;1.00;;;;;;;;5078733;27;45350;-87
2023/06/26 06:55:40;;;;;;;;;4.00;2.33;;;;;;;;5077822;27;45412;-86
2023/06/26 06:58:05;;;;;;;;;1.67;1.67;;;;;;;;5072529;28;45582;-83
2023/06/26 07:00:31;;;;;;;;;2.00;1.00;;;;;;;;5078257;28;46420;-83
2023/06/26 07:02:57;;;;;;;;;1.75;1.00;;;;;;;;5064332;28;45489;-83
2023/06/26 07:05:22;;;;;;;;;3.25;2.00;;;;;;;;5058371;28;45312;-85
2023/06/26 07:07:47;;;;;;;;;2.00;2.00;;;;;;;;5058523;28;45314;-87
2023/06/26 07:10:13;;;;;;;;;2.00;1.00;;;;;;;;5039900;28;46717;-84
2023/06/26 07:12:38;;;;;;;;;1.25;1.25;;;;;;;;5058048;28;45302;-84
2023/06/26 07:15:04;;;;;;;;;2.25;1.00;;;;;;;;5058302;28;45710;-84
2023/06/26 07:17:39;;;;;;;;;2.00;1.00;;;;;;;;5058233;28;45548;-84
2023/06/26 07:20:06;;;;;;;;;1.25;1.25;;;;;;;;5058071;28;46949;-84
2023/06/26 07:22:32;;;;;;;;;1.75;1.00;;;;;;;;5058065;28;45296;-84
2023/06/26 07:24:57;;;;;;;;;4.00;2.00;;;;;;;;5057915;28;45384;-85
2023/06/26 07:27:22;;;;;;;;;4.00;1.00;;;;;;;;5058042;28;45853;-84
2023/06/26 07:29:47;;;;;;;;;1.00;1.00;;;;;;;;5057936;28;46272;-83
2023/06/26 07:32:13;;;;;;;;;3.00;2.00;;;;;;;;5057862;28;45559;-85
2023/06/26 07:34:38;;;;;;;;;2.00;0.67;;;;;;;;5058068;28;45426;-85
2023/06/26 07:37:03;;;;;;;;;2.33;2.00;;;;;;;;5057886;28;45277;-85
2023/06/26 07:39:29;;;;;;;;;1.75;1.75;;;;;;;;5057645;28;45947;-86
2023/06/26 07:41:54;;;;;;;;;4.00;2.00;;;;;;;;5057793;28;45398;-85
2023/06/26 07:44:19;;;;;;;;;2.00;2.00;;;;;;;;5057975;28;45309;-85
2023/06/26 07:46:45;;;;;;;;;2.00;1.00;;;;;;;;5057287;28;45500;-87
2023/06/26 07:49:11;;;;;;;;;2.00;1.00;;;;;;;;5057510;28;45649;-84
2023/06/26 07:51:36;;;;;;;;;2.75;1.50;;;;;;;;5051601;28;45399;-84
2023/06/26 07:54:01;;;;;;;;;4.00;1.33;;;;;;;;5055332;28;45333;-85
2023/06/26 07:56:26;;;;;;;;;1.67;1.67;;;;;;;;5051264;28;45597;-84
2023/06/26 07:58:52;;;;;;;;;2.00;1.00;;;;;;;;5077429;28;45475;-84
2023/06/26 08:01:17;;;;;;;;;0.75;0.75;;;;;;;;5077025;27;45479;-84
2023/06/26 08:03:42;;;;;;;;;5.33;1.00;;;;;;;;5077291;27;45261;-83
2023/06/26 08:06:08;;;;;;;;;0.00;0.00;;;;;;;;5077604;27;45418;-84
2023/06/26 08:08:33;;;;;;;;;2.00;1.00;;;;;;;;5076949;27;46187;-83
2023/06/26 08:10:58;;;;;;;;;2.00;1.00;;;;;;;;5077183;27;45414;-84
2023/06/26 08:13:23;;;;;;;;;0.33;0.33;;;;;;;;5077434;27;45316;-84
2023/06/26 08:15:48;;;;;;;;;2.00;0.00;;;;;;;;5077361;27;45642;-84
2023/06/26 08:18:14;;;;;;;;;2.00;1.00;;;;;;;;5076930;27;47108;-84
2023/06/26 08:20:39;;;;;;;;;0.33;0.33;;;;;;;;5092347;27;45723;-83
2023/06/26 08:23:04;;;;;;;;;0.67;0.00;;;;;;;;5097547;27;45408;-84
2023/06/26 08:25:29;;;;;;;;;2.75;1.00;;;;;;;;5097778;27;45420;-83
2023/06/26 08:27:55;;;;;;;;;1.00;0.00;;;;;;;;5130800;27;47437;-84
2023/06/26 08:30:20;;;;;;;;;1.00;0.00;;;;;;;;5083163;27;45378;-85
2023/06/26 08:32:45;;;;;;;;;0.50;0.50;;;;;;;;5076894;27;45272;-84
2023/06/26 08:35:11;;;;;;;;;2.00;0.00;;;;;;;;5076946;27;45323;-84
2023/06/26 08:37:36;;;;;;;;;1.00;1.00;;;;;;;;5076249;27;46148;-85
2023/06/26 08:40:01;;;;;;;;;1.00;1.00;;;;;;;;5076876;27;45510;-85
2023/06/26 08:42:26;;;;;;;;;1.00;1.00;;;;;;;;5075290;28;45406;-85
2023/06/26 08:44:52;;;;;;;;;1.33;1.33;;;;;;;;5076798;27;45386;-86
2023/06/26 08:47:17;;;;;;;;;1.00;1.00;;;;;;;;5076560;27;46356;-86
2023/06/26 08:49:47;;;;;;;;;0.00;0.00;;;;;;;;5079752;27;45518;-85
2023/06/26 08:52:26;;;;;;;;;1.50;0.00;;;;;;;;5076014;28;45407;-85
2023/06/26 08:54:54;;;;;;;;;0.50;0.50;;;;;;;;5076912;27;45425;-85
2023/06/26 08:57:20;;;;;;;;;2.00;0.50;;;;;;;;5064187;27;46239;-84
2023/06/26 08:59:47;;;;;;;;;0.50;0.50;;;;;;;;5056486;28;45547;-85
2023/06/26 09:02:12;;;;;;;;;1.00;1.00;;;;;;;;5037084;28;45543;-84
2023/06/26 09:04:38;;;;;;;;;0.67;0.67;;;;;;;;5055907;28;45572;-84
2023/06/26 09:07:03;;;;;;;;;0.50;0.50;;;;;;;;5056106;28;45297;-85
2023/06/26 09:09:29;;;;;;;;;2.50;0.75;;;;;;;;5056909;28;45337;-84
2023/06/26 09:11:55;;;;;;;;;3.50;0.25;;;;;;;;5050814;28;45443;-85
2023/06/26 09:14:20;;;;;;;;;1.50;0.00;;;;;;;;5053521;28;45448;-84
2023/06/26 09:16:46;;;;;;;;;1.25;1.00;;;;;;;;5054200;28;45739;-84
2023/06/26 09:19:12;;;;;;;;;0.67;0.67;;;;;;;;5059412;28;45462;-85
2023/06/26 09:21:41;;;;;;;;;0.75;0.75;;;;;;;;5071232;28;45430;-85
2023/06/26 09:24:09;;;;;;;;;1.25;0.75;;;;;;;;5076208;28;45386;-88
2023/06/26 09:26:38;;;;;;;;;0.00;0.00;;;;;;;;5075968;28;46683;-85
2023/06/26 09:29:04;;;;;;;;;2.00;0.75;;;;;;;;5076361;28;45678;-86
2023/06/26 09:31:29;;;;;;;;;1.00;1.00;;;;;;;;5075928;28;45453;-85
2023/06/26 09:33:59;;;;;;;;;0.00;0.00;;;;;;;;5075330;28;45387;-84
2023/06/26 09:36:26;;;;;;;;;0.25;0.00;;;;;;;;5055263;28;45362;-85
2023/06/26 09:38:51;;;;;;;;;1.25;0.00;;;;;;;;5055533;28;45860;-85
2023/06/26 09:41:17;;;;;;;;;0.50;0.50;;;;;;;;5055494;28;45341;-85
2023/06/26 09:43:50;;;;;;;;;1.00;0.00;;;;;;;;5055868;28;45412;-83
2023/06/26 09:46:16;;;;;;;;;1.50;0.00;;;;;;;;5055310;28;47204;-84
2023/06/26 09:48:41;;;;;;;;;1.00;1.00;;;;;;;;5062769;28;45527;-83
2023/06/26 09:51:06;;;;;;;;;1.00;0.00;;;;;;;;5075777;28;45396;-83
2023/06/26 09:53:34;;;;;;;;;0.00;0.00;;;;;;;;5065016;28;45436;-83
2023/06/26 09:56:04;;;;;;;;;0.00;0.00;;;;;;;;5059967;28;45415;-83
2023/06/26 09:58:30;;;;;;;;;1.00;1.00;;;;;;;;5075770;28;45336;-84
2023/06/26 10:00:55;;;;;;;;;0.00;0.00;;;;;;;;5075606;28;45400;-83
2023/06/26 10:03:20;;;;;;;;;0.67;0.67;;;;;;;;5075323;28;45280;-84
2023/06/26 10:05:46;;;;;;;;;0.00;0.00;;;;;;;;5075603;28;45420;-85
2023/06/26 10:08:14;;;;;;;;;1.25;0.00;;;;;;;;5075521;28;45628;-84
2023/06/26 10:10:40;;;;;;;;;0.00;0.00;;;;;;;;5072328;28;45434;-84
2023/06/26 10:13:12;;;;;;;;;0.00;0.00;;;;;;;;5054635;28;45568;-84
2023/06/26 10:15:40;;;;;;;;;0.25;0.25;;;;;;;;5040753;28;46611;-85
2023/06/26 10:18:05;;;;;;;;;0.00;0.00;;;;;;;;5058350;28;45723;-83
2023/06/26 10:20:30;;;;;;;;;0.00;0.00;;;;;;;;5058827;28;45433;-84
2023/06/26 10:22:57;;;;;;;;;0.00;0.00;;;;;;;;5057849;28;45298;-86
2023/06/26 10:25:23;;;;;;;;;0.00;0.00;;;;;;;;5058587;28;47284;-86
2023/06/26 10:27:52;;;;;;;;;0.00;0.00;;;;;;;;5058668;28;45275;-87
2023/06/26 10:30:20;;;;;;;;;4.00;1.00;;;;;;;;5068717;28;45423;-86
2023/06/26 10:32:46;;;;;;;;;1.00;1.00;;;;;;;;5078439;28;45556;-85
2023/06/26 10:35:12;;;;;;;;;1.00;1.00;;;;;;;;5079196;28;45304;-84
2023/06/26 10:37:44;;;;;;;;;0.00;0.00;;;;;;;;5078986;28;45333;-85
2023/06/26 10:40:09;;;;;;;;;0.75;0.00;;;;;;;;5069383;28;45364;-86
2023/06/26 10:42:35;;;;;;;;;0.00;0.00;;;;;;;;5057554;28;45669;-86
2023/06/26 10:45:14;;;;;;;;;0.25;0.25;;;;;;;;5058488;28;46528;-87
2023/06/26 10:47:40;;;;;;;;;0.25;0.25;;;;;;;;5058127;28;45909;-87
2023/06/26 10:50:20;;;;;;;;;0.00;0.00;;;;;;;;5058333;28;45398;-84
2023/06/26 10:52:45;;;;;;;;;2.50;0.75;;;;;;;;5057690;28;45399;-84
2023/06/26 10:55:11;;;;;;;;;1.00;1.00;;;;;;;;5058164;28;46182;-84
2023/06/26 10:57:36;;;;;;;;;1.00;1.00;;;;;;;;5068636;27;45450;-84
2023/06/26 11:00:13;;;;;;;;;1.75;1.00;;;;;;;;5058328;28;45620;-83
2023/06/26 11:02:49;;;;;;;;;1.50;1.50;;;;;;;;5057400;28;45508;-83
2023/06/26 11:05:23;;;;;;;;;0.00;0.00;;;;;;;;5057894;28;45503;-83
2023/06/26 11:08:16;;;;;;;;;2.00;1.00;;;;;;;;5057925;28;45396;-83
2023/06/26 11:10:48;;;;;;;;;2.50;1.00;;;;;;;;5057574;28;45424;-84
2023/06/26 11:13:14;;;;;;;;;2.00;1.00;;;;;;;;5057860;28;45491;-84
2023/06/26 11:15:42;;;;;;;;;1.25;1.00;;;;;;;;5057502;28;46313;-83
2023/06/26 11:18:07;;;;;;;;;0.25;0.25;;;;;;;;5057931;28;45349;-83
2023/06/26 11:20:32;;;;;;;;;1.25;0.00;;;;;;;;5057793;28;45312;-85
2023/06/26 11:22:58;;;;;;;;;1.00;1.00;;;;;;;;5057930;28;45741;-84
2023/06/26 11:25:23;;;;;;;;;1.00;0.00;;;;;;;;5057094;28;45890;-83
2023/06/26 11:27:49;;;;;;;;;3.00;0.75;;;;;;;;5058126;28;45348;-84
2023/06/26 11:30:24;;;;;;;;;1.00;1.00;;;;;;;;5057489;28;45419;-84
2023/06/26 11:32:50;;;;;;;;;3.50;0.25;;;;;;;;5057421;28;45342;-84
2023/06/26 11:35:30;;;;;;;;;1.25;0.00;;;;;;;;5057482;28;46456;-86
2023/06/26 11:37:56;;;;;;;;;0.25;0.25;;;;;;;;5057633;28;45839;-85
2023/06/26 11:40:26;;;;;;;;;1.00;1.00;;;;;;;;5057605;28;45297;-85
2023/06/26 11:42:52;;;;;;;;;1.50;0.75;;;;;;;;5057555;28;45434;-84
2023/06/26 11:45:17;;;;;;;;;0.50;0.50;;;;;;;;5056987;28;45706;-85
2023/06/26 11:47:42;;;;;;;;;0.75;0.75;;;;;;;;5076399;28;45333;-84
2023/06/26 11:50:14;;;;;;;;;0.67;0.00;;;;;;;;5077539;28;45435;-84
2023/06/26 11:52:41;;;;;;;;;1.00;0.00;;;;;;;;5077315;28;45206;-83
2023/06/26 11:55:06;;;;;;;;;0.75;0.00;;;;;;;;5077494;28;47341;-84
2023/06/26 11:57:31;;;;;;;;;1.25;0.00;;;;;;;;5077307;27;45268;-86
2023/06/26 11:59:56;;;;;;;;;0.00;0.00;;;;;;;;5077409;28;45218;-84
2023/06/26 12:02:22;;;;;;;;;2.67;0.00;;;;;;;;5059260;28;45487;-84
2023/06/26 12:04:47;;;;;;;;;0.00;0.00;;;;;;;;5077178;28;46861;-85
2023/06/26 12:07:12;;;;;;;;;0.00;0.00;;;;;;;;5077266;28;45154;-85
2023/06/26 12:09:40;;;;;;;;;0.00;0.00;;;;;;;;5077624;28;45358;-85
2023/06/26 12:12:05;;;;;;;;;2.00;0.00;;;;;;;;5077093;28;45333;-85
2023/06/26 12:14:31;;;;;;;;;1.25;0.75;;;;;;;;5062428;28;46699;-85
2023/06/26 12:17:03;;;;;;;;;0.00;0.00;;;;;;;;5057200;28;45341;-84
2023/06/26 12:19:29;;;;;;;;;0.00;0.00;;;;;;;;5057091;28;45511;-86
2023/06/26 12:21:56;;;;;;;;;0.00;0.00;;;;;;;;5057128;28;45403;-85
2023/06/26 12:24:21;;;;;;;;;1.00;0.25;;;;;;;;5056777;28;47018;-85
2023/06/26 12:26:51;;;;;;;;;0.00;0.00;;;;;;;;5056740;28;45534;-86
2023/06/26 12:29:18;;;;;;;;;0.00;0.00;;;;;;;;5056729;28;45325;-86
2023/06/26 12:31:45;;;;;;;;;0.50;0.00;;;;;;;;5056656;28;45512;-85
2023/06/26 12:34:12;;;;;;;;;1.50;0.00;;;;;;;;5038336;28;48553;-86
2023/06/26 12:36:44;;;;;;;;;0.00;0.00;;;;;;;;5055253;28;45468;-85
2023/06/26 12:39:11;;;;;;;;;0.25;0.00;;;;;;;;5057085;28;45403;-86
2023/06/26 12:41:43;;;;;;;;;0.00;0.00;;;;;;;;5056487;28;45496;-86
2023/06/26 12:44:16;;;;;;;;;1.00;0.00;;;;;;;;5056272;28;46308;-85
2023/06/26 12:46:41;;;;;;;;;1.00;0.00;;;;;;;;5066904;28;45733;-84
2023/06/26 12:49:06;;;;;;;;;1.00;0.00;;;;;;;;5077132;28;45387;-85
2023/06/26 12:51:31;;;;;;;;;0.33;0.00;;;;;;;;5076561;28;45546;-86
2023/06/26 12:53:56;;;;;;;;;0.00;0.00;;;;;;;;5076557;28;45751;-85
2023/06/26 12:56:22;;;;;;;;;0.67;0.33;;;;;;;;5076239;28;45298;-86
2023/06/26 12:58:47;;;;;;;;;0.67;0.00;;;;;;;;5063737;28;45439;-86
2023/06/26 13:01:15;;;;;;;;;0.00;0.00;;;;;;;;5056304;28;45396;-85
2023/06/26 13:03:43;;;;;;;;;0.00;0.00;;;;;;;;5056151;28;46966;-85
2023/06/26 13:06:08;;;;;;;;;1.25;1.00;;;;;;;;5054880;28;45540;-86
2023/06/26 13:08:33;;;;;;;;;2.33;2.00;;;;;;;;5056318;28;45267;-85
2023/06/26 13:10:59;;;;;;;;;1.50;1.00;;;;;;;;5055476;28;45419;-86
2023/06/26 13:13:24;;;;;;;;;0.67;0.00;;;;;;;;5055981;28;46628;-86
2023/06/26 13:15:49;;;;;;;;;0.00;0.00;;;;;;;;5056141;28;45270;-87
2023/06/26 13:18:14;;;;;;;;;0.00;0.00;;;;;;;;5056325;28;45332;-87
2023/06/26 13:20:40;;;;;;;;;0.67;0.00;;;;;;;;5055850;28;45311;-86
2023/06/26 13:23:05;;;;;;;;;1.00;0.00;;;;;;;;5037954;28;46045;-87
2023/06/26 13:25:30;;;;;;;;;1.00;0.00;;;;;;;;5060892;28;45553;-86
2023/06/26 13:27:55;;;;;;;;;0.00;0.00;;;;;;;;5055435;28;45392;-85
2023/06/26 13:30:21;;;;;;;;;0.67;0.00;;;;;;;;5074787;28;45500;-86
2023/06/26 13:32:46;;;;;;;;;1.00;0.00;;;;;;;;5069799;28;46153;-87
2023/06/26 13:35:11;;;;;;;;;0.33;0.00;;;;;;;;5055915;28;45289;-87
2023/06/26 13:37:36;;;;;;;;;0.00;0.00;;;;;;;;5056055;28;45290;-86
2023/06/26 13:40:02;;;;;;;;;0.00;0.00;;;;;;;;5030443;28;45416;-86
2023/06/26 13:42:28;;;;;;;;;0.00;0.00;;;;;;;;5046552;28;45322;-86
2023/06/26 13:44:53;;;;;;;;;0.00;0.00;;;;;;;;5075558;28;45665;-85
2023/06/26 13:47:18;;;;;;;;;0.00;0.00;;;;;;;;5061262;28;45549;-86
2023/06/26 13:49:43;;;;;;;;;0.00;0.00;;;;;;;;5075295;28;45805;-86
2023/06/26 13:52:08;;;;;;;;;0.00;0.00;;;;;;;;5071522;28;45455;-86
2023/06/26 13:54:35;;;;;;;;;2.00;0.00;;;;;;;;5054854;28;45395;-86
2023/06/26 13:57:02;;;;;;;;;0.00;0.00;;;;;;;;5068405;28;45256;-86
2023/06/26 13:59:28;;;;;;;;;2.00;0.50;;;;;;;;5075577;28;45377;-85
2023/06/26 14:01:54;;;;;;;;;0.00;0.00;;;;;;;;5075290;28;46054;-87
2023/06/26 14:04:19;;;;;;;;;0.00;0.00;;;;;;;;5072116;28;45290;-87
2023/06/26 14:06:45;;;;;;;;;0.00;0.00;;;;;;;;5055232;28;45513;-87
2023/06/26 14:09:10;;;;;;;;;0.25;0.00;;;;;;;;5055169;28;45443;-88
2023/06/26 14:11:35;;;;;;;;;0.00;0.00;;;;;;;;5054832;28;45345;-85
2023/06/26 14:14:00;;;;;;;;;0.00;0.00;;;;;;;;5058323;28;45595;-86
2023/06/26 14:16:26;;;;;;;;;0.00;0.00;;;;;;;;5075544;28;45377;-86
2023/06/26 14:18:51;;;;;;;;;0.00;0.00;;;;;;;;5064978;28;45262;-87
2023/06/26 14:21:16;;;;;;;;;0.00;0.00;;;;;;;;5054640;28;46296;-85
2023/06/26 14:23:41;;;;;;;;;0.00;0.00;;;;;;;;5057624;28;45498;-86
2023/06/26 14:26:07;;;;;;;;;0.00;0.00;;;;;;;;5075469;28;45352;-86
2023/06/26 14:28:32;;;;;;;;;0.00;0.00;;;;;;;;5065653;28;45416;-87
2023/06/26 14:30:57;;;;;;;;;1.00;0.00;;;;;;;;5054786;28;46137;-86
2023/06/26 14:33:22;;;;;;;;;0.00;0.00;;;;;;;;5055253;28;45364;-84
2023/06/26 14:35:47;;;;;;;;;0.00;0.00;;;;;;;;5055126;28;45356;-86
2023/06/26 14:38:12;;;;;;;;;0.00;0.00;;;;;;;;5054604;28;45436;-86
2023/06/26 14:40:38;;;;;;;;;0.00;0.00;;;;;;;;5063542;28;46104;-85
2023/06/26 14:43:03;;;;;;;;;0.00;0.00;;;;;;;;5075118;28;45719;-86
2023/06/26 14:45:28;;;;;;;;;2.00;0.00;;;;;;;;5075173;28;45374;-87
2023/06/26 14:47:53;;;;;;;;;0.00;0.00;;;;;;;;5075304;28;45391;-86
2023/06/26 14:50:18;;;;;;;;;0.00;0.00;;;;;;;;5075177;28;46250;-88
2023/06/26 14:52:44;;;;;;;;;0.00;0.00;;;;;;;;5074457;28;45309;-86
2023/06/26 14:55:09;;;;;;;;;0.00;0.00;;;;;;;;5075384;28;45316;-85
2023/06/26 14:57:34;;;;;;;;;0.00;0.00;;;;;;;;5074825;28;45429;-86
2023/06/26 14:59:59;;;;;;;;;0.00;0.00;;;;;;;;5076032;28;46003;-86
2023/06/26 15:02:25;;;;;;;;;0.00;0.00;;;;;;;;5078349;28;45772;-85
2023/06/26 15:04:50;;;;;;;;;1.00;0.00;;;;;;;;5078390;28;45398;-85
2023/06/26 15:07:15;;;;;;;;;0.00;0.00;;;;;;;;5078113;28;45407;-84
2023/06/26 15:09:40;;;;;;;;;0.00;0.00;;;;;;;;5078302;28;45431;-85
2023/06/26 15:12:06;;;;;;;;;1.00;0.00;;;;;;;;5059926;28;45953;-86
2023/06/26 15:14:31;;;;;;;;;0.00;0.00;;;;;;;;5064102;28;45380;-87
2023/06/26 15:16:56;;;;;;;;;0.75;0.00;;;;;;;;5047128;28;45598;-86
2023/06/26 15:19:21;;;;;;;;;0.00;0.00;;;;;;;;5078197;28;47212;-86
2023/06/26 15:21:46;;;;;;;;;0.00;0.00;;;;;;;;5077668;28;45622;-86
2023/06/26 15:24:12;;;;;;;;;0.33;0.00;;;;;;;;5059878;28;45463;-87
2023/06/26 15:26:37;;;;;;;;;0.00;0.00;;;;;;;;5078319;28;45394;-87
2023/06/26 15:29:03;;;;;;;;;0.00;0.00;;;;;;;;5077926;28;46989;-86
2023/06/26 15:31:30;;;;;;;;;0.00;0.00;;;;;;;;5077844;28;45344;-85
2023/06/26 15:33:55;;;;;;;;;0.00;0.00;;;;;;;;5078021;28;45372;-85
2023/06/26 15:36:21;;;;;;;;;0.00;0.00;;;;;;;;5077350;28;45274;-86
2023/06/26 15:38:46;;;;;;;;;0.00;0.00;;;;;;;;5077457;28;46007;-85
2023/06/26 15:41:12;;;;;;;;;0.00;0.00;;;;;;;;5077454;28;45476;-87
2023/06/26 15:43:39;;;;;;;;;1.00;0.00;;;;;;;;5063469;28;45742;-85